sensor_id;sensor_type;location;lat;lon;timestamp;pressure;altitude;pressure_sealevel;temperature;humidity
59877;BME280;45749;51.140;17.184;2022-07-29T00:00:10;100407.58;;;15.92;62.72
59877;BME280;45749;51.140;17.184;2022-07-29T00:02:38;100405.41;;;15.92;62.82
59877;BME280;45749;51.140;17.184;2022-07-29T00:05:04;100406.56;;;15.89;62.83
59877;BME280;45749;51.140;17.184;2022-07-29T00:07:31;100401.16;;;15.85;63.10
59877;BME280;45749;51.140;17.184;2022-07-29T00:09:57;100402.64;;;15.84;62.96
59877;BME280;45749;51.140;17.184;2022-07-29T00:12:24;100402.93;;;15.81;62.78
59877;BME280;45749;51.140;17.184;2022-07-29T00:14:50;100406.70;;;15.78;62.74
59877;BME280;45749;51.140;17.184;2022-07-29T00:17:17;100409.16;;;15.76;63.25
59877;BME280;45749;51.140;17.184;2022-07-29T00:19:43;100410.64;;;15.74;63.30
59877;BME280;45749;51.140;17.184;2022-07-29T00:22:09;100411.27;;;15.72;63.03
59877;BME280;45749;51.140;17.184;2022-07-29T00:24:35;100409.09;;;15.71;63.44
59877;BME280;45749;51.140;17.184;2022-07-29T00:27:01;100408.27;;;15.71;63.57
59877;BME280;45749;51.140;17.184;2022-07-29T00:29:27;100410.92;;;15.71;63.72
59877;BME280;45749;51.140;17.184;2022-07-29T00:31:53;100409.09;;;15.71;63.42
59877;BME280;45749;51.140;17.184;2022-07-29T00:34:19;100410.09;;;15.70;63.24
59877;BME280;45749;51.140;17.184;2022-07-29T00:37:03;100408.88;;;15.69;63.38
59877;BME280;45749;51.140;17.184;2022-07-29T00:39:29;100406.23;;;15.69;63.39
59877;BME280;45749;51.140;17.184;2022-07-29T00:41:55;100396.91;;;15.69;63.69
59877;BME280;45749;51.140;17.184;2022-07-29T00:44:21;100397.16;;;15.66;63.52
59877;BME280;45749;51.140;17.184;2022-07-29T00:46:47;100395.16;;;15.64;63.63
59877;BME280;45749;51.140;17.184;2022-07-29T00:49:13;100399.43;;;15.61;63.95
59877;BME280;45749;51.140;17.184;2022-07-29T00:51:39;100394.73;;;15.59;64.18
59877;BME280;45749;51.140;17.184;2022-07-29T00:54:07;100390.06;;;15.57;64.28
59877;BME280;45749;51.140;17.184;2022-07-29T00:56:33;100385.36;;;15.55;64.05
59877;BME280;45749;51.140;17.184;2022-07-29T00:58:59;100389.64;;;15.52;64.34
59877;BME280;45749;51.140;17.184;2022-07-29T01:01:26;100393.91;;;15.48;64.27
59877;BME280;45749;51.140;17.184;2022-07-29T01:03:52;100395.17;;;15.44;64.34
59877;BME280;45749;51.140;17.184;2022-07-29T01:06:19;100390.63;;;15.41;64.38
59877;BME280;45749;51.140;17.184;2022-07-29T01:08:47;100393.91;;;15.39;64.73
59877;BME280;45749;51.140;17.184;2022-07-29T01:11:15;100400.22;;;15.38;64.70
59877;BME280;45749;51.140;17.184;2022-07-29T01:13:43;100403.37;;;15.37;64.73
59877;BME280;45749;51.140;17.184;2022-07-29T01:16:20;100396.84;;;15.36;64.96
59877;BME280;45749;51.140;17.184;2022-07-29T01:18:56;100391.19;;;15.35;64.89
59877;BME280;45749;51.140;17.184;2022-07-29T01:27:25;100393.97;;;15.33;65.19
59877;BME280;45749;51.140;17.184;2022-07-29T01:30:01;100397.62;;;15.32;65.18
59877;BME280;45749;51.140;17.184;2022-07-29T01:32:31;100393.41;;;15.30;65.33
59877;BME280;45749;51.140;17.184;2022-07-29T01:38:05;100378.95;;;15.28;65.24
59877;BME280;45749;51.140;17.184;2022-07-29T01:40:52;100378.23;;;15.26;65.56
59877;BME280;45749;51.140;17.184;2022-07-29T01:43:18;100355.46;;;15.14;65.56
59877;BME280;45749;51.140;17.184;2022-07-29T01:45:50;100380.89;;;15.26;65.65
59877;BME280;45749;51.140;17.184;2022-07-29T01:48:43;100384.05;;;15.25;65.43
59877;BME280;45749;51.140;17.184;2022-07-29T01:51:15;100381.89;;;15.25;65.56
59877;BME280;45749;51.140;17.184;2022-07-29T01:53:55;100377.56;;;15.24;65.76
59877;BME280;45749;51.140;17.184;2022-07-29T01:56:38;100345.78;;;15.03;65.95
59877;BME280;45749;51.140;17.184;2022-07-29T01:59:06;100349.09;;;15.11;66.03
59877;BME280;45749;51.140;17.184;2022-07-29T02:01:34;100363.55;;;15.22;65.92
59877;BME280;45749;51.140;17.184;2022-07-29T02:04:03;100368.87;;;15.22;66.01
59877;BME280;45749;51.140;17.184;2022-07-29T02:06:33;100363.34;;;15.19;66.34
59877;BME280;45749;51.140;17.184;2022-07-29T02:09:02;100363.34;;;15.19;66.34
59877;BME280;45749;51.140;17.184;2022-07-29T02:11:30;100357.69;;;15.18;66.27
59877;BME280;45749;51.140;17.184;2022-07-29T02:13:57;100340.28;;;15.00;66.35
59877;BME280;45749;51.140;17.184;2022-07-29T02:16:26;100340.28;;;15.00;66.35
59877;BME280;45749;51.140;17.184;2022-07-29T02:18:55;100350.82;;;15.06;66.43
59877;BME280;45749;51.140;17.184;2022-07-29T02:21:24;100362.16;;;15.08;66.70
59877;BME280;45749;51.140;17.184;2022-07-29T02:23:53;100363.27;;;15.06;66.77
59877;BME280;45749;51.140;17.184;2022-07-29T02:26:23;100362.56;;;15.04;66.62
59877;BME280;45749;51.140;17.184;2022-07-29T02:28:52;100358.52;;;14.99;66.80
59877;BME280;45749;51.140;17.184;2022-07-29T02:31:22;100355.64;;;14.97;66.70
59877;BME280;45749;51.140;17.184;2022-07-29T02:33:51;100336.34;;;14.85;66.87
59877;BME280;45749;51.140;17.184;2022-07-29T02:36:21;100360.27;;;14.95;66.86
59877;BME280;45749;51.140;17.184;2022-07-29T02:38:48;100346.70;;;14.88;67.05
59877;BME280;45749;51.140;17.184;2022-07-29T02:41:30;100358.38;;;14.91;67.06
59877;BME280;45749;51.140;17.184;2022-07-29T02:44:14;100352.02;;;14.88;67.28
59877;BME280;45749;51.140;17.184;2022-07-29T02:47:02;100343.69;;;14.77;67.35
59877;BME280;45749;51.140;17.184;2022-07-29T02:52:21;100357.66;;;14.80;67.62
59877;BME280;45749;51.140;17.184;2022-07-29T02:54:55;100343.45;;;14.65;67.76
59877;BME280;45749;51.140;17.184;2022-07-29T02:57:35;100336.15;;;14.58;68.05
59877;BME280;45749;51.140;17.184;2022-07-29T03:00:08;100336.15;;;14.58;68.05
59877;BME280;45749;51.140;17.184;2022-07-29T03:02:40;100358.63;;;14.69;68.02
59877;BME280;45749;51.140;17.184;2022-07-29T03:05:14;100355.52;;;14.64;68.16
59877;BME280;45749;51.140;17.184;2022-07-29T03:07:41;100355.52;;;14.64;68.16
59877;BME280;45749;51.140;17.184;2022-07-29T03:10:10;100364.62;;;14.61;68.22
59877;BME280;45749;51.140;17.184;2022-07-29T03:12:36;100366.69;;;14.58;68.30
59877;BME280;45749;51.140;17.184;2022-07-29T03:15:03;100351.69;;;14.47;68.34
59877;BME280;45749;51.140;17.184;2022-07-29T03:17:31;100363.27;;;14.51;68.42
59877;BME280;45749;51.140;17.184;2022-07-29T03:19:58;100366.88;;;14.50;68.56
59877;BME280;45749;51.140;17.184;2022-07-29T03:22:25;100368.21;;;14.50;68.84
59877;BME280;45749;51.140;17.184;2022-07-29T03:24:51;100368.21;;;14.50;68.84
59877;BME280;45749;51.140;17.184;2022-07-29T03:27:17;100367.50;;;14.48;68.95
59877;BME280;45749;51.140;17.184;2022-07-29T03:29:43;100370.42;;;14.45;68.82
59877;BME280;45749;51.140;17.184;2022-07-29T03:32:09;100363.22;;;14.42;68.93
59877;BME280;45749;51.140;17.184;2022-07-29T03:34:36;100363.22;;;14.42;68.93
59877;BME280;45749;51.140;17.184;2022-07-29T03:37:04;100373.11;;;14.40;69.17
59877;BME280;45749;51.140;17.184;2022-07-29T03:39:34;100374.59;;;14.38;69.30
59877;BME280;45749;51.140;17.184;2022-07-29T03:42:03;100369.41;;;14.37;69.39
59877;BME280;45749;51.140;17.184;2022-07-29T03:44:31;100351.28;;;14.26;69.62
59877;BME280;45749;51.140;17.184;2022-07-29T03:46:59;100367.39;;;14.35;69.72
59877;BME280;45749;51.140;17.184;2022-07-29T03:49:27;100372.70;;;14.35;69.62
59877;BME280;45749;51.140;17.184;2022-07-29T03:51:54;100375.35;;;14.35;69.66
59877;BME280;45749;51.140;17.184;2022-07-29T03:54:20;100373.04;;;14.36;69.96
59877;BME280;45749;51.140;17.184;2022-07-29T03:56:48;100377.70;;;14.38;69.84
59877;BME280;45749;51.140;17.184;2022-07-29T03:59:18;100381.23;;;14.38;69.97
59877;BME280;45749;51.140;17.184;2022-07-29T04:01:45;100361.55;;;14.25;69.81
59877;BME280;45749;51.140;17.184;2022-07-29T04:04:12;100361.55;;;14.25;69.81
59877;BME280;45749;51.140;17.184;2022-07-29T04:06:40;100383.39;;;14.39;70.14
59877;BME280;45749;51.140;17.184;2022-07-29T04:09:08;100384.23;;;14.39;70.25
59877;BME280;45749;51.140;17.184;2022-07-29T04:11:34;100383.24;;;14.40;70.34
59877;BME280;45749;51.140;17.184;2022-07-29T04:14:01;100362.80;;;14.31;70.36
59877;BME280;45749;51.140;17.184;2022-07-29T04:16:27;100362.80;;;14.31;70.36
59877;BME280;45749;51.140;17.184;2022-07-29T04:18:52;100387.18;;;14.46;70.35
59877;BME280;45749;51.140;17.184;2022-07-29T04:21:19;100384.38;;;14.47;70.29
59877;BME280;45749;51.140;17.184;2022-07-29T04:23:44;100382.09;;;14.48;70.29
59877;BME280;45749;51.140;17.184;2022-07-29T04:26:12;100383.65;;;14.51;70.48
59877;BME280;45749;51.140;17.184;2022-07-29T04:28:38;100376.28;;;14.54;70.33
59877;BME280;45749;51.140;17.184;2022-07-29T04:31:05;100372.98;;;14.57;70.23
59877;BME280;45749;51.140;17.184;2022-07-29T04:33:32;100381.02;;;14.61;70.22
59877;BME280;45749;51.140;17.184;2022-07-29T04:35:58;100379.42;;;14.64;70.31
59877;BME280;45749;51.140;17.184;2022-07-29T04:38:24;100379.65;;;14.66;70.25
59877;BME280;45749;51.140;17.184;2022-07-29T04:40:50;100380.70;;;14.69;70.34
59877;BME280;45749;51.140;17.184;2022-07-29T04:43:16;100371.14;;;14.72;70.48
59877;BME280;45749;51.140;17.184;2022-07-29T04:45:42;100374.85;;;14.75;70.56
59877;BME280;45749;51.140;17.184;2022-07-29T04:48:08;100373.94;;;14.81;70.88
59877;BME280;45749;51.140;17.184;2022-07-29T04:50:39;100375.36;;;14.85;70.82
59877;BME280;45749;51.140;17.184;2022-07-29T04:53:06;100377.09;;;14.90;70.86
59877;BME280;45749;51.140;17.184;2022-07-29T04:55:33;100376.70;;;14.94;70.80
59877;BME280;45749;51.140;17.184;2022-07-29T04:57:59;100373.01;;;15.01;70.77
59877;BME280;45749;51.140;17.184;2022-07-29T05:00:25;100373.29;;;15.08;70.55
59877;BME280;45749;51.140;17.184;2022-07-29T05:02:52;100374.06;;;15.14;71.00
59877;BME280;45749;51.140;17.184;2022-07-29T05:05:18;100375.18;;;15.21;70.87
59877;BME280;45749;51.140;17.184;2022-07-29T05:07:44;100375.95;;;15.27;71.13
59877;BME280;45749;51.140;17.184;2022-07-29T05:10:10;100367.27;;;15.35;71.05
59877;BME280;45749;51.140;17.184;2022-07-29T05:12:37;100366.55;;;15.42;71.08
59877;BME280;45749;51.140;17.184;2022-07-29T05:15:04;100366.91;;;15.53;71.45
59877;BME280;45749;51.140;17.184;2022-07-29T05:17:30;100366.68;;;15.60;71.32
59877;BME280;45749;51.140;17.184;2022-07-29T05:19:57;100364.53;;;15.69;71.25
59877;BME280;45749;51.140;17.184;2022-07-29T05:22:22;100340.72;;;15.68;71.09
59877;BME280;45749;51.140;17.184;2022-07-29T05:24:48;100363.28;;;15.87;71.01
59877;BME280;45749;51.140;17.184;2022-07-29T05:27:14;100369.07;;;15.97;70.56
59877;BME280;45749;51.140;17.184;2022-07-29T05:29:41;100363.84;;;16.05;70.30
59877;BME280;45749;51.140;17.184;2022-07-29T05:32:07;100363.60;;;16.12;69.88
59877;BME280;45749;51.140;17.184;2022-07-29T05:34:33;100370.05;;;16.19;69.81
59877;BME280;45749;51.140;17.184;2022-07-29T05:36:59;100365.80;;;16.26;69.82
59877;BME280;45749;51.140;17.184;2022-07-29T05:39:25;100360.23;;;16.33;69.83
59877;BME280;45749;51.140;17.184;2022-07-29T05:41:51;100363.64;;;16.39;69.43
59877;BME280;45749;51.140;17.184;2022-07-29T05:44:17;100363.05;;;16.46;69.51
59877;BME280;45749;51.140;17.184;2022-07-29T05:46:43;100365.95;;;16.52;69.24
59877;BME280;45749;51.140;17.184;2022-07-29T05:49:09;100367.53;;;16.59;69.18
59877;BME280;45749;51.140;17.184;2022-07-29T05:51:35;100370.56;;;16.64;68.99
59877;BME280;45749;51.140;17.184;2022-07-29T05:54:02;100364.98;;;16.71;68.88
59877;BME280;45749;51.140;17.184;2022-07-29T05:56:28;100367.08;;;16.77;68.70
59877;BME280;45749;51.140;17.184;2022-07-29T05:58:54;100365.48;;;16.84;68.83
59877;BME280;45749;51.140;17.184;2022-07-29T06:01:20;100366.72;;;16.90;68.13
59877;BME280;45749;51.140;17.184;2022-07-29T06:03:46;100360.62;;;16.98;68.14
59877;BME280;45749;51.140;17.184;2022-07-29T06:06:12;100369.34;;;17.04;68.34
59877;BME280;45749;51.140;17.184;2022-07-29T06:08:38;100365.58;;;17.10;68.26
59877;BME280;45749;51.140;17.184;2022-07-29T06:11:05;100368.64;;;17.16;67.93
59877;BME280;45749;51.140;17.184;2022-07-29T06:13:33;100372.16;;;17.20;67.64
59877;BME280;45749;51.140;17.184;2022-07-29T06:16:00;100368.75;;;17.28;67.86
59877;BME280;45749;51.140;17.184;2022-07-29T06:18:26;100360.61;;;17.33;68.17
59877;BME280;45749;51.140;17.184;2022-07-29T06:20:53;100362.33;;;17.39;67.87
59877;BME280;45749;51.140;17.184;2022-07-29T06:23:19;100363.05;;;17.45;67.99
59877;BME280;45749;51.140;17.184;2022-07-29T06:25:46;100364.10;;;17.52;67.91
59877;BME280;45749;51.140;17.184;2022-07-29T06:28:12;100361.17;;;17.63;67.36
59877;BME280;45749;51.140;17.184;2022-07-29T06:30:39;100363.09;;;17.75;67.00
59877;BME280;45749;51.140;17.184;2022-07-29T06:33:05;100359.35;;;17.86;66.44
59877;BME280;45749;51.140;17.184;2022-07-29T06:35:33;100356.90;;;17.96;66.43
59877;BME280;45749;51.140;17.184;2022-07-29T06:38:01;100360.80;;;18.06;66.92
59877;BME280;45749;51.140;17.184;2022-07-29T06:40:28;100358.51;;;18.15;66.37
59877;BME280;45749;51.140;17.184;2022-07-29T06:43:13;100365.56;;;18.24;66.20
59877;BME280;45749;51.140;17.184;2022-07-29T06:45:39;100365.27;;;18.36;66.34
59877;BME280;45749;51.140;17.184;2022-07-29T06:48:06;100362.00;;;18.46;66.16
59877;BME280;45749;51.140;17.184;2022-07-29T06:50:32;100366.70;;;18.56;65.97
59877;BME280;45749;51.140;17.184;2022-07-29T06:52:59;100372.06;;;18.68;65.61
59877;BME280;45749;51.140;17.184;2022-07-29T06:55:24;100366.97;;;18.79;65.13
59877;BME280;45749;51.140;17.184;2022-07-29T06:57:50;100367.66;;;18.89;64.54
59877;BME280;45749;51.140;17.184;2022-07-29T07:00:16;100370.83;;;19.01;63.88
59877;BME280;45749;51.140;17.184;2022-07-29T07:02:42;100373.72;;;19.12;63.71
59877;BME280;45749;51.140;17.184;2022-07-29T07:05:08;100367.34;;;19.21;63.59
59877;BME280;45749;51.140;17.184;2022-07-29T07:07:34;100362.52;;;19.33;63.34
59877;BME280;45749;51.140;17.184;2022-07-29T07:10:00;100365.34;;;19.43;62.78
59877;BME280;45749;51.140;17.184;2022-07-29T07:12:26;100367.34;;;19.54;62.58
59877;BME280;45749;51.140;17.184;2022-07-29T07:14:52;100369.86;;;19.59;62.41
59877;BME280;45749;51.140;17.184;2022-07-29T07:17:18;100367.19;;;19.67;62.06
59877;BME280;45749;51.140;17.184;2022-07-29T07:19:44;100361.67;;;19.73;62.16
59877;BME280;45749;51.140;17.184;2022-07-29T07:22:10;100357.48;;;19.79;61.74
59877;BME280;45749;51.140;17.184;2022-07-29T07:24:36;100356.81;;;19.85;62.23
59877;BME280;45749;51.140;17.184;2022-07-29T07:27:02;100356.45;;;19.92;61.91
59877;BME280;45749;51.140;17.184;2022-07-29T07:29:28;100352.08;;;19.99;62.11
59877;BME280;45749;51.140;17.184;2022-07-29T07:31:54;100350.88;;;20.06;62.12
59877;BME280;45749;51.140;17.184;2022-07-29T07:34:20;100351.70;;;20.14;62.06
59877;BME280;45749;51.140;17.184;2022-07-29T07:36:46;100352.49;;;20.27;61.56
59877;BME280;45749;51.140;17.184;2022-07-29T07:39:12;100354.97;;;20.37;61.28
59877;BME280;45749;51.140;17.184;2022-07-29T07:41:38;100346.72;;;20.47;60.99
59877;BME280;45749;51.140;17.184;2022-07-29T07:44:04;100347.84;;;20.56;60.79
59877;BME280;45749;51.140;17.184;2022-07-29T07:46:31;100349.16;;;20.65;61.06
59877;BME280;45749;51.140;17.184;2022-07-29T07:48:57;100350.44;;;20.73;60.81
59877;BME280;45749;51.140;17.184;2022-07-29T07:51:23;100350.08;;;20.80;60.73
59877;BME280;45749;51.140;17.184;2022-07-29T07:53:49;100351.70;;;20.85;59.73
59877;BME280;45749;51.140;17.184;2022-07-29T07:56:16;100352.18;;;20.93;59.41
59877;BME280;45749;51.140;17.184;2022-07-29T07:58:42;100341.41;;;20.97;59.60
59877;BME280;45749;51.140;17.184;2022-07-29T08:01:08;100342.53;;;21.02;59.55
59877;BME280;45749;51.140;17.184;2022-07-29T08:03:35;100332.77;;;21.10;59.79
59877;BME280;45749;51.140;17.184;2022-07-29T08:06:02;100343.42;;;21.18;59.29
59877;BME280;45749;51.140;17.184;2022-07-29T08:08:29;100343.86;;;21.25;58.54
59877;BME280;45749;51.140;17.184;2022-07-29T08:10:55;100345.00;;;21.31;58.36
59877;BME280;45749;51.140;17.184;2022-07-29T08:13:25;100346.67;;;21.36;58.25
59877;BME280;45749;51.140;17.184;2022-07-29T08:15:56;100343.44;;;21.41;58.01
59877;BME280;45749;51.140;17.184;2022-07-29T08:18:29;100339.36;;;21.45;58.69
59877;BME280;45749;51.140;17.184;2022-07-29T08:20:57;100345.03;;;21.50;57.85
59877;BME280;45749;51.140;17.184;2022-07-29T08:23:23;100343.13;;;21.59;57.64
59877;BME280;45749;51.140;17.184;2022-07-29T08:25:50;100342.70;;;21.66;57.47
59877;BME280;45749;51.140;17.184;2022-07-29T08:28:16;100344.98;;;21.73;57.44
59877;BME280;45749;51.140;17.184;2022-07-29T08:30:42;100337.34;;;21.81;56.99
59877;BME280;45749;51.140;17.184;2022-07-29T08:33:08;100338.92;;;21.90;57.14
59877;BME280;45749;51.140;17.184;2022-07-29T08:35:34;100335.59;;;22.03;57.26
59877;BME280;45749;51.140;17.184;2022-07-29T08:38:00;100335.46;;;22.15;56.88
59877;BME280;45749;51.140;17.184;2022-07-29T08:40:28;100337.38;;;22.25;56.39
59877;BME280;45749;51.140;17.184;2022-07-29T08:42:54;100338.95;;;22.34;55.51
59877;BME280;45749;51.140;17.184;2022-07-29T08:45:22;100342.20;;;22.40;55.57
59877;BME280;45749;51.140;17.184;2022-07-29T08:47:48;100334.73;;;22.46;55.45
59877;BME280;45749;51.140;17.184;2022-07-29T08:50:14;100336.16;;;22.53;55.17
59877;BME280;45749;51.140;17.184;2022-07-29T08:52:41;100336.23;;;22.60;55.29
59877;BME280;45749;51.140;17.184;2022-07-29T08:55:09;100335.79;;;22.67;55.84
59877;BME280;45749;51.140;17.184;2022-07-29T08:57:35;100341.38;;;22.76;55.43
59877;BME280;45749;51.140;17.184;2022-07-29T09:00:04;100333.59;;;22.81;54.84
59877;BME280;45749;51.140;17.184;2022-07-29T09:02:35;100335.63;;;22.90;54.52
59877;BME280;45749;51.140;17.184;2022-07-29T09:05:04;100334.72;;;22.98;54.43
59877;BME280;45749;51.140;17.184;2022-07-29T09:07:30;100330.22;;;23.05;54.37
59877;BME280;45749;51.140;17.184;2022-07-29T09:09:58;100327.73;;;23.14;54.56
59877;BME280;45749;51.140;17.184;2022-07-29T09:12:25;100327.71;;;23.25;54.98
59877;BME280;45749;51.140;17.184;2022-07-29T09:14:54;100328.42;;;23.33;53.44
59877;BME280;45749;51.140;17.184;2022-07-29T09:17:41;100323.39;;;23.41;53.74
59877;BME280;45749;51.140;17.184;2022-07-29T09:20:14;100331.13;;;23.51;53.96
59877;BME280;45749;51.140;17.184;2022-07-29T09:22:45;100325.41;;;23.60;52.62
59877;BME280;45749;51.140;17.184;2022-07-29T09:25:13;100326.80;;;23.67;52.81
59877;BME280;45749;51.140;17.184;2022-07-29T09:27:40;100324.36;;;23.72;52.13
59877;BME280;45749;51.140;17.184;2022-07-29T09:30:08;100325.14;;;23.77;52.59
59877;BME280;45749;51.140;17.184;2022-07-29T09:32:55;100316.88;;;23.85;52.23
59877;BME280;45749;51.140;17.184;2022-07-29T09:35:25;100317.56;;;23.94;52.00
59877;BME280;45749;51.140;17.184;2022-07-29T09:37:51;100320.94;;;24.02;52.01
59877;BME280;45749;51.140;17.184;2022-07-29T09:40:23;100318.98;;;24.07;51.49
59877;BME280;45749;51.140;17.184;2022-07-29T09:42:51;100319.53;;;24.13;51.13
59877;BME280;45749;51.140;17.184;2022-07-29T09:45:28;100304.61;;;24.17;50.79
59877;BME280;45749;51.140;17.184;2022-07-29T09:47:56;100316.13;;;24.22;50.53
59877;BME280;45749;51.140;17.184;2022-07-29T09:50:40;100307.86;;;24.23;50.48
59877;BME280;45749;51.140;17.184;2022-07-29T09:53:06;100303.94;;;24.26;50.86
59877;BME280;45749;51.140;17.184;2022-07-29T09:55:48;100309.85;;;24.25;50.31
59877;BME280;45749;51.140;17.184;2022-07-29T09:58:20;100305.28;;;24.26;50.55
59877;BME280;45749;51.140;17.184;2022-07-29T10:00:48;100304.77;;;24.26;49.76
59877;BME280;45749;51.140;17.184;2022-07-29T10:03:16;100294.16;;;24.25;50.14
59877;BME280;45749;51.140;17.184;2022-07-29T10:05:43;100298.73;;;24.24;49.56
59877;BME280;45749;51.140;17.184;2022-07-29T10:08:11;100299.89;;;24.26;49.52
59877;BME280;45749;51.140;17.184;2022-07-29T10:10:42;100300.72;;;24.26;49.58
59877;BME280;45749;51.140;17.184;2022-07-29T10:13:14;100298.85;;;24.27;49.50
59877;BME280;45749;51.140;17.184;2022-07-29T10:15:40;100292.41;;;24.28;49.42
59877;BME280;45749;51.140;17.184;2022-07-29T10:18:11;100287.88;;;24.28;49.80
59877;BME280;45749;51.140;17.184;2022-07-29T10:20:38;100286.96;;;24.32;49.91
59877;BME280;45749;51.140;17.184;2022-07-29T10:23:05;100290.38;;;24.37;50.10
59877;BME280;45749;51.140;17.184;2022-07-29T10:25:31;100291.02;;;24.39;50.24
59877;BME280;45749;51.140;17.184;2022-07-29T10:27:57;100289.09;;;24.43;50.21
59877;BME280;45749;51.140;17.184;2022-07-29T10:30:25;100286.30;;;24.47;50.14
59877;BME280;45749;51.140;17.184;2022-07-29T10:44:05;100289.78;;;24.65;49.38
59877;BME280;45749;51.140;17.184;2022-07-29T10:46:38;100285.41;;;24.71;49.58
59877;BME280;45749;51.140;17.184;2022-07-29T10:57:30;100277.98;;;24.99;48.64
59877;BME280;45749;51.140;17.184;2022-07-29T11:02:42;100275.28;;;25.06;47.90
59877;BME280;45749;51.140;17.184;2022-07-29T11:10:43;100275.84;;;25.25;48.21
59877;BME280;45749;51.140;17.184;2022-07-29T11:13:09;100280.30;;;25.36;48.44
59877;BME280;45749;51.140;17.184;2022-07-29T11:15:56;100284.22;;;25.46;47.76
59877;BME280;45749;51.140;17.184;2022-07-29T11:18:24;100281.20;;;25.59;48.67
59877;BME280;45749;51.140;17.184;2022-07-29T11:20:51;100270.98;;;25.74;48.30
59877;BME280;45749;51.140;17.184;2022-07-29T11:23:31;100267.64;;;25.79;47.89
59877;BME280;45749;51.140;17.184;2022-07-29T11:29:03;100266.71;;;25.76;46.59
59877;BME280;45749;51.140;17.184;2022-07-29T11:31:37;100263.48;;;25.76;47.14
59877;BME280;45749;51.140;17.184;2022-07-29T11:34:29;100267.48;;;25.80;47.30
59877;BME280;45749;51.140;17.184;2022-07-29T11:39:47;100264.52;;;25.88;46.98
59877;BME280;45749;51.140;17.184;2022-07-29T11:47:48;100273.96;;;25.95;46.66
59877;BME280;45749;51.140;17.184;2022-07-29T11:50:18;100266.38;;;25.94;46.50
59877;BME280;45749;51.140;17.184;2022-07-29T11:52:55;100261.27;;;25.95;46.47
59877;BME280;45749;51.140;17.184;2022-07-29T11:55:23;100266.15;;;25.96;46.42
59877;BME280;45749;51.140;17.184;2022-07-29T11:57:51;100265.13;;;25.97;46.39
59877;BME280;45749;51.140;17.184;2022-07-29T12:02:57;100267.08;;;25.99;46.18
59877;BME280;45749;51.140;17.184;2022-07-29T12:08:12;100262.72;;;25.98;46.08
59877;BME280;45749;51.140;17.184;2022-07-29T12:10:42;100258.97;;;25.99;46.02
59877;BME280;45749;51.140;17.184;2022-07-29T12:13:09;100259.83;;;26.00;46.38
59877;BME280;45749;51.140;17.184;2022-07-29T12:15:36;100256.66;;;26.03;46.37
59877;BME280;45749;51.140;17.184;2022-07-29T12:18:13;100258.73;;;26.07;46.67
59877;BME280;45749;51.140;17.184;2022-07-29T12:20:46;100248.72;;;26.14;45.89
59877;BME280;45749;51.140;17.184;2022-07-29T12:23:14;100251.09;;;26.20;45.99
59877;BME280;45749;51.140;17.184;2022-07-29T12:25:44;100251.39;;;26.21;45.43
59877;BME280;45749;51.140;17.184;2022-07-29T12:28:12;100254.92;;;26.22;45.73
59877;BME280;45749;51.140;17.184;2022-07-29T12:30:46;100243.38;;;26.24;45.99
59877;BME280;45749;51.140;17.184;2022-07-29T12:33:22;100239.32;;;26.24;45.38
59877;BME280;45749;51.140;17.184;2022-07-29T12:35:58;100243.38;;;26.24;45.98
59877;BME280;45749;51.140;17.184;2022-07-29T12:38:25;100242.33;;;26.25;45.86
59877;BME280;45749;51.140;17.184;2022-07-29T12:40:53;100239.09;;;26.25;45.87
59877;BME280;45749;51.140;17.184;2022-07-29T12:43:21;100234.44;;;26.23;45.25
59877;BME280;45749;51.140;17.184;2022-07-29T12:45:52;100235.36;;;26.26;46.08
59877;BME280;45749;51.140;17.184;2022-07-29T12:48:34;100227.22;;;26.33;46.04
59877;BME280;45749;51.140;17.184;2022-07-29T12:51:04;100222.78;;;26.38;46.09
59877;BME280;45749;51.140;17.184;2022-07-29T12:53:31;100226.41;;;26.41;46.22
59877;BME280;45749;51.140;17.184;2022-07-29T12:55:58;100224.77;;;26.40;45.75
59877;BME280;45749;51.140;17.184;2022-07-29T12:58:40;100218.44;;;26.37;45.49
59877;BME280;45749;51.140;17.184;2022-07-29T13:01:09;100213.98;;;26.34;45.25
59877;BME280;45749;51.140;17.184;2022-07-29T13:06:31;100215.91;;;26.27;45.70
59877;BME280;45749;51.140;17.184;2022-07-29T13:11:37;100218.05;;;26.34;45.69
59877;BME280;45749;51.140;17.184;2022-07-29T13:14:06;100217.04;;;26.44;45.43
59877;BME280;45749;51.140;17.184;2022-07-29T13:16:59;100212.77;;;26.52;44.89
59877;BME280;45749;51.140;17.184;2022-07-29T13:19:15;100212.58;;;26.63;45.36
59877;BME280;45749;51.140;17.184;2022-07-29T13:21:41;100211.77;;;26.72;45.36
59877;BME280;45749;51.140;17.184;2022-07-29T13:24:07;100204.13;;;26.78;44.65
59877;BME280;45749;51.140;17.184;2022-07-29T13:26:34;100202.72;;;26.84;45.20
59877;BME280;45749;51.140;17.184;2022-07-29T13:29:00;100204.89;;;26.85;44.79
59877;BME280;45749;51.140;17.184;2022-07-29T13:31:26;100195.27;;;26.80;44.08
59877;BME280;45749;51.140;17.184;2022-07-29T13:33:52;100192.09;;;26.74;44.92
59877;BME280;45749;51.140;17.184;2022-07-29T13:36:18;100185.23;;;26.71;44.65
59877;BME280;45749;51.140;17.184;2022-07-29T13:38:44;100184.41;;;26.71;44.39
59877;BME280;45749;51.140;17.184;2022-07-29T13:41:10;100184.41;;;26.71;44.55
59877;BME280;45749;51.140;17.184;2022-07-29T13:43:36;100178.91;;;26.68;44.53
59877;BME280;45749;51.140;17.184;2022-07-29T13:46:02;100180.34;;;26.71;44.95
59877;BME280;45749;51.140;17.184;2022-07-29T13:48:28;100181.50;;;26.72;44.78